Saint John, WA (99171)

11:28 AM PDT on October 30, 2014 (GMT -0700)
Winona-Silk Stocking Road | Change Station
CLOSE
Current Station
Personal Weather Station
Location: Endicott, WA
Elevation: 1483 ft
Nearby Weather Stations

Elev 1483 ft 46.94 °N, 117.80 °W | Updated 1 second ago

Overcast
Overcast
59.2 °F
Feels Like 59.2 °F
N
2.7
Wind Variable Wind from East
Gusts 11.0 mph

Today
High -- | Low -- °F
--% Chance of Precip.
Yesterday
High -- | Low -- °F
Precip. -- in
7:30 AM 5:36 PM
Waxing Crescent, 46% visible
Pressure 30.10 in
Visibility 10.0 miles
Clouds Mostly Cloudy 7500 ft
Overcast 8500 ft
Dew Point 50 °F
Humidity 71%
Rainfall 0.00 in
Snow Depth Not available.
UV 1 out of 12
Pollen 1.60 out of 12
Air Quality Not available.
Flu Activity Not available.
METAR KPUW 301753Z AUTO 10010KT 10SM -RA BKN075 OVC085 12/06 A3009 RMK AO2 RAB14 SLP193 P0000 60000 T01220061 10122 20094 58008

More Conditions Fewer Conditions

Pressure 30.10 in
Visibility 10.0 miles
Clouds Mostly Cloudy 7500 ft
Overcast 8500 ft
Dew Point 50 °F
Humidity 71%
Rainfall 0.00 in
Snow Depth Not available.
UV 1 out of 12
Pollen 1.60 out of 12
Air Quality Not available.
Flu Activity Not available.
METAR KPUW 301753Z AUTO 10010KT 10SM -RA BKN075 OVC085 12/06 A3009 RMK AO2 RAB14 SLP193 P0000 60000 T01220061 10122 20094 58008

More Conditions Fewer Conditions

10-Day Weather Forecast

Almanac

Astronomy

Oct. 30, 2014 Rise Set
Actual Time
Civil Twilight
Nautical Twilight
Astronomical Twilight
Moon
Length of Visible Light
Length of Day
Tomorrow will be .
, % of the Moon is Illuminated

Today's Extremes

State Highs State Lows

Community

WunderPhotos

Upload Photos

1,766,419 photos uploaded!

WunderBlogs® & News

Nearby

Air Quality

  Air Quality AQ Index Pollutant
Not available.

Snow Depth

Station Depth Elevation

Earthquake Activity

City Distance Mag. Time & Date
Minimum magnitude displayed is 2.5.

Coastal Water Temperatures

Place Temperature

Nearby Weather Stations